createdAt,value
2022-12-14T06:08:58.499Z,100007.25
2022-12-14T06:29:32.451Z,100003.84
2022-12-14T06:49:14.601Z,99986.78
2022-12-14T06:52:07.582Z,99985.06
2022-12-14T06:54:43.746Z,99993.63
2022-12-14T06:57:10.908Z,99990.19
2022-12-14T06:59:38.189Z,99979.06
2022-12-14T07:02:05.634Z,99990.19
2022-12-14T07:04:32.825Z,99986.75
2022-12-14T07:06:59.991Z,99986.75
2022-12-14T07:09:27.149Z,99984.22
2022-12-14T07:11:54.341Z,99982.53
2022-12-14T07:14:21.513Z,99977.38
2022-12-14T07:16:49.218Z,99966.28
2022-12-14T07:19:17.445Z,99971.44
2022-12-14T07:21:44.589Z,99966.28
2022-12-14T07:24:11.768Z,99963.72
2022-12-14T07:26:38.993Z,99965.44
2022-12-14T07:29:06.641Z,99963.72
2022-12-14T07:31:33.894Z,99956.06
2022-12-14T07:34:01.119Z,99967.13
2022-12-14T07:36:29.420Z,99960.31
2022-12-14T07:38:57.300Z,99958.63
2022-12-14T07:41:30.418Z,99949.22
2022-12-14T07:43:59.653Z,99953.50
2022-12-14T07:46:29.337Z,99952.63
2022-12-14T07:48:57.610Z,99945.78
2022-12-14T07:51:33.219Z,99951.75
2022-12-14T07:54:01.346Z,99948.31
2022-12-14T07:56:32.392Z,99948.31
2022-12-14T07:59:00.784Z,99943.19
2022-12-14T08:01:34.016Z,99947.47
2022-12-14T08:04:05.841Z,99947.44
2022-12-14T08:06:33.726Z,99951.72
2022-12-14T08:09:01.126Z,99960.25
2022-12-14T08:11:28.721Z,99945.75
2022-12-14T08:14:00.943Z,99939.75
2022-12-14T08:16:28.702Z,99941.41
2022-12-14T08:18:58.896Z,99938.84
2022-12-14T08:21:27.569Z,99947.38
2022-12-14T08:23:56.025Z,99945.66
2022-12-14T08:26:27.359Z,99946.50
2022-12-14T08:28:57.307Z,99947.34
2022-12-14T08:31:26.174Z,99937.09
2022-12-14T08:33:53.705Z,99941.41
2022-12-14T08:36:29.053Z,99936.28
2022-12-14T08:39:01.503Z,99932.81
2022-12-14T08:41:29.394Z,99932.81
2022-12-14T08:43:58.489Z,99929.34
2022-12-14T08:46:27.831Z,99927.63
2022-12-14T08:48:55.724Z,99928.41
2022-12-14T08:51:24.084Z,99923.25
2022-12-14T08:53:51.820Z,99920.69
2022-12-14T08:56:21.367Z,99912.94
2022-12-14T08:58:48.472Z,99920.59
2022-12-14T09:01:19.549Z,99914.56
2022-12-14T09:03:47.513Z,99910.28
2022-12-14T09:06:17.157Z,99911.94
2022-12-14T09:08:44.517Z,99913.66
2022-12-14T09:11:13.727Z,99911.91
2022-12-14T09:13:41.769Z,99913.59
2022-12-14T09:16:17.342Z,99917.00
2022-12-14T09:18:47.950Z,99909.25
2022-12-14T09:21:15.541Z,99908.38
2022-12-14T09:23:43.132Z,99910.91
2022-12-14T09:26:18.607Z,99910.03
2022-12-14T09:28:51.262Z,99902.28
2022-12-14T09:31:21.300Z,99898.84
2022-12-14T09:33:48.668Z,99897.13
2022-12-14T09:36:23.187Z,99891.06
2022-12-14T09:38:52.400Z,99887.59
2022-12-14T09:41:34.917Z,99887.59
2022-12-14T09:44:09.630Z,99878.97
2022-12-14T09:46:42.969Z,99873.75
2022-12-14T09:49:38.670Z,99878.81
2022-12-14T09:52:07.222Z,99871.88
2022-12-14T09:54:38.625Z,99866.63
2022-12-14T09:57:26.097Z,99867.50
2022-12-14T09:59:54.624Z,99864.03
2022-12-14T10:02:32.878Z,99859.66
2022-12-14T10:05:21.655Z,99860.41
2022-12-14T10:08:02.580Z,99861.19
2022-12-14T10:11:08.642Z,99854.25
2022-12-14T10:13:55.662Z,99849.03
2022-12-14T10:16:31.304Z,99836.03
2022-12-14T10:19:02.704Z,99837.66
2022-12-14T10:21:42.265Z,99827.34
2022-12-14T10:24:15.318Z,99822.06
2022-12-14T10:26:47.096Z,99829.66
2022-12-14T10:29:16.403Z,99826.16
2022-12-14T10:31:58.682Z,99820.84
2022-12-14T10:34:29.664Z,99825.06
2022-12-14T10:37:06.895Z,99827.50
2022-12-14T10:39:36.570Z,99813.72
2022-12-14T10:42:32.038Z,99817.06
2022-12-14T10:48:11.448Z,99810.94
2022-12-14T10:50:57.059Z,99808.28
2022-12-14T10:53:33.443Z,99809.16
2022-12-14T10:56:08.792Z,99810.81
2022-12-14T10:58:35.972Z,99808.13
2022-12-14T11:01:03.260Z,99805.44
2022-12-14T11:03:30.791Z,99804.41
2022-12-14T11:05:57.943Z,99795.69
2022-12-14T11:08:48.804Z,99789.63
2022-12-14T11:11:25.953Z,99779.09
2022-12-14T11:13:55.349Z,99777.16
2022-12-14T11:16:36.610Z,99765.56
2022-12-14T11:19:06.645Z,99763.34
2022-12-14T11:21:36.341Z,99758.59
2022-12-14T11:24:03.977Z,99757.59
2022-12-14T11:26:37.210Z,99760.59
2022-12-14T11:29:26.371Z,99748.25
2022-12-14T11:31:53.576Z,99746.50
2022-12-14T11:34:23.512Z,99746.16
2022-12-14T11:36:50.770Z,99750.88
2022-12-14T11:39:22.737Z,99746.13
2022-12-14T11:41:58.791Z,99750.44
2022-12-14T11:44:27.657Z,99757.31
2022-12-14T11:47:02.275Z,99761.81
2022-12-14T11:49:35.735Z,99751.66
2022-12-14T11:52:20.196Z,99749.19
2022-12-14T11:54:54.371Z,99750.97
2022-12-14T11:57:24.711Z,99748.41
2022-12-14T11:59:54.499Z,99738.66
2022-12-14T12:02:30.398Z,99739.34
2022-12-14T12:05:20.747Z,99745.28
2022-12-14T12:07:50.609Z,99740.00
2022-12-14T12:10:20.999Z,99743.81
2022-12-14T12:12:54.293Z,99739.84
2022-12-14T12:15:36.403Z,99736.25
2022-12-14T12:18:46.442Z,99732.00
2022-12-14T12:21:29.341Z,99727.53
2022-12-14T12:24:05.243Z,99732.63
2022-12-14T12:26:34.994Z,99733.47
2022-12-14T12:29:15.440Z,99717.75
2022-12-14T12:31:50.486Z,99715.88
2022-12-14T12:34:40.696Z,99717.19
2022-12-14T12:37:30.502Z,99712.78
2022-12-14T12:40:02.397Z,99716.28
2022-12-14T12:42:41.394Z,99713.25
2022-12-14T12:45:24.851Z,99712.09
2022-12-14T12:48:00.775Z,99717.75
2022-12-14T12:50:36.087Z,99711.28
2022-12-14T12:53:11.349Z,99708.09
2022-12-14T12:55:42.669Z,99712.03
2022-12-14T12:58:19.246Z,99714.38
2022-12-14T13:00:51.536Z,99703.97
2022-12-14T13:03:23.868Z,99697.59
2022-12-14T13:05:53.324Z,99709.50
2022-12-14T13:08:26.699Z,99700.00
2022-12-14T13:13:49.002Z,99695.28
2022-12-14T13:16:35.209Z,99690.47
2022-12-14T13:19:40.422Z,99693.78
2022-12-14T13:22:01.827Z,99694.31
2022-12-14T13:24:32.592Z,99696.56
2022-12-14T13:27:17.891Z,99685.44
2022-12-14T13:30:20.559Z,99686.00
2022-12-14T13:33:13.170Z,99681.47
2022-12-14T13:35:52.726Z,99681.19
2022-12-14T13:38:38.256Z,99687.06
2022-12-14T13:41:26.541Z,99681.56
2022-12-14T13:44:13.520Z,99684.47
2022-12-14T13:46:41.693Z,99688.03
2022-12-14T13:49:18.719Z,99678.03
2022-12-14T13:51:50.297Z,99679.97
2022-12-14T13:54:30.590Z,99677.50
2022-12-14T13:57:09.109Z,99670.91
2022-12-14T13:59:45.242Z,99673.25
2022-12-14T14:02:28.007Z,99675.13
2022-12-14T14:05:20.239Z,99674.53
2022-12-14T14:08:31.133Z,99668.69
2022-12-14T14:14:45.008Z,99668.16
2022-12-14T14:17:24.341Z,99667.72
2022-12-14T14:19:56.327Z,99665.16
2022-12-14T14:22:27.486Z,99658.13
2022-12-14T14:25:02.492Z,99650.50
2022-12-14T14:27:38.697Z,99645.34
2022-12-14T14:30:28.929Z,99649.22
2022-12-14T14:33:07.610Z,99642.56
2022-12-14T14:35:43.807Z,99630.84
2022-12-14T14:38:27.829Z,99625.38
2022-12-14T14:41:17.444Z,99625.56
2022-12-14T14:43:51.880Z,99628.19
2022-12-14T14:46:23.142Z,99627.41
2022-12-14T14:48:54.391Z,99629.31
2022-12-14T14:51:26.302Z,99625.13
2022-12-14T14:54:56.567Z,99625.22
2022-12-14T14:57:35.884Z,99626.13
2022-12-14T15:00:05.193Z,99618.44
2022-12-14T15:02:37.983Z,99618.38
2022-12-14T15:05:40.307Z,99617.44
2022-12-14T15:07:54.599Z,99616.66
2022-12-14T15:10:31.133Z,99615.16
2022-12-14T15:13:04.149Z,99617.91
2022-12-14T15:15:43.837Z,99616.22
2022-12-14T15:18:20.433Z,99611.00
2022-12-14T15:21:08.189Z,99602.44
2022-12-14T15:23:37.862Z,99611.91
2022-12-14T15:26:16.581Z,99611.13
2022-12-14T15:28:52.950Z,99606.06
2022-12-14T15:31:35.021Z,99612.06
2022-12-14T15:34:02.683Z,99615.00
2022-12-14T15:36:33.620Z,99619.47
2022-12-14T15:39:00.840Z,99609.34
2022-12-14T15:41:29.869Z,99610.13
2022-12-14T15:44:00.027Z,99613.38
2022-12-14T15:46:35.090Z,99615.03
2022-12-14T15:49:04.957Z,99612.53
2022-12-14T15:51:40.753Z,99617.72
2022-12-14T15:54:12.141Z,99612.53
2022-12-14T15:56:45.938Z,99603.44
2022-12-14T15:59:19.793Z,99609.66
2022-12-14T16:01:54.300Z,99613.97
2022-12-14T16:04:23.696Z,99609.53
2022-12-14T16:07:08.581Z,99600.91
2022-12-14T16:09:41.394Z,99602.91
2022-12-14T16:12:40.894Z,99602.88
2022-12-14T16:15:23.966Z,99596.94
2022-12-14T16:17:57.511Z,99602.13
2022-12-14T16:20:34.166Z,99595.13
2022-12-14T16:23:27.715Z,99591.75
2022-12-14T16:26:14.194Z,99599.63
2022-12-14T16:28:41.582Z,99598.00
2022-12-14T16:31:11.746Z,99599.72
2022-12-14T16:33:43.194Z,99595.41
2022-12-14T16:36:22.307Z,99592.81
2022-12-14T18:43:25.771Z,99593.13
2022-12-14T19:04:40.641Z,99606.09
2022-12-14T20:54:18.802Z,99642.66
2022-12-14T20:57:35.708Z,99638.41
2022-12-14T21:04:28.043Z,99634.94
2022-12-14T21:06:55.289Z,99631.53
2022-12-14T21:09:22.494Z,99635.00
2022-12-14T21:12:10.179Z,99629.00
2022-12-14T21:14:42.393Z,99631.53
2022-12-14T21:17:10.023Z,99634.19
2022-12-14T21:19:37.413Z,99635.84
2022-12-14T21:22:05.768Z,99637.59
2022-12-14T22:51:15.092Z,99671.34
2022-12-14T22:58:32.247Z,99659.38
2022-12-14T23:36:19.753Z,99672.31
2022-12-14T23:44:07.789Z,99678.41
